Time;durP1;ratioP1;P1;durP2;ratioP2;P2;SDS_P1;SDS_P2;PMS_P1;PMS_P2;Temp;Humidity;BMP_temperature;BMP_pressure;BME280_temperature;BME280_humidity;BME280_pressure;Samples;Min_cycle;Max_cycle;Signal;HPM_P1;HPM_P2
2020/12/16 00:00:23;;;;;;;0.00;0.00;;;;;;;;;;4933258;28;20221;-62
2020/12/16 00:02:51;;;;;;;0.00;0.00;;;;;;;;;;4940706;28;20055;-62
2020/12/16 00:05:17;;;;;;;0.82;0.60;;;;;;;;;;4932896;28;20224;-61
2020/12/16 00:07:45;;;;;;;0.10;0.10;;;;;;;;;;4944194;28;20521;-61
2020/12/16 00:10:17;;;;;;;0.17;0.17;;;;;;;;;;4932296;28;20070;-61
2020/12/16 00:12:43;;;;;;;0.00;0.00;;;;;;;;;;4951032;28;20041;-62
2020/12/16 00:15:09;;;;;;;0.20;0.20;;;;;;;;;;4952221;28;20045;-61
2020/12/16 00:17:35;;;;;;;0.00;0.00;;;;;;;;;;4948045;28;20035;-62
2020/12/16 00:20:04;;;;;;;0.00;0.00;;;;;;;;;;4951975;28;20263;-62
2020/12/16 00:22:33;;;;;;;0.00;0.00;;;;;;;;;;4933997;28;20042;-62
2020/12/16 00:24:58;;;;;;;0.20;0.20;;;;;;;;;;4949781;28;20031;-62
2020/12/16 00:27:24;;;;;;;0.00;0.00;;;;;;;;;;4949668;28;20015;-63
2020/12/16 00:29:49;;;;;;;0.13;0.13;;;;;;;;;;4950237;28;20386;-62
2020/12/16 00:32:22;;;;;;;0.85;0.65;;;;;;;;;;4948098;28;20030;-61
2020/12/16 00:34:47;;;;;;;0.08;0.08;;;;;;;;;;4930217;28;20327;-63
2020/12/16 00:37:13;;;;;;;0.00;0.00;;;;;;;;;;4945974;28;20284;-62
2020/12/16 00:39:38;;;;;;;0.63;0.63;;;;;;;;;;4930424;28;20026;-62
2020/12/16 00:42:07;;;;;;;0.85;0.82;;;;;;;;;;4944558;28;20133;-62
2020/12/16 00:44:33;;;;;;;0.73;0.57;;;;;;;;;;4944412;28;20026;-62
2020/12/16 00:46:59;;;;;;;0.22;0.22;;;;;;;;;;4947341;28;20054;-62
2020/12/16 00:49:24;;;;;;;0.38;0.38;;;;;;;;;;4931015;28;20039;-62
2020/12/16 00:51:55;;;;;;;1.27;0.63;;;;;;;;;;4947878;28;20049;-61
2020/12/16 00:54:21;;;;;;;0.00;0.00;;;;;;;;;;4949606;28;20204;-62
2020/12/16 00:56:46;;;;;;;0.00;0.00;;;;;;;;;;4947402;28;20022;-62
2020/12/16 00:59:12;;;;;;;0.88;0.82;;;;;;;;;;4948823;28;20900;-62
2020/12/16 01:01:42;;;;;;;0.30;0.30;;;;;;;;;;4930551;28;20603;-62
2020/12/16 01:04:42;;;;;;;0.22;0.22;;;;;;;;;;4946079;28;20058;-61
2020/12/16 01:07:10;;;;;;;0.22;0.22;;;;;;;;;;4949245;28;20023;-61
2020/12/16 01:09:41;;;;;;;1.10;1.00;;;;;;;;;;4942373;28;20446;-61
2020/12/16 01:12:08;;;;;;;0.43;0.43;;;;;;;;;;4951484;28;20180;-61
2020/12/16 01:14:38;;;;;;;0.57;0.57;;;;;;;;;;4917202;28;20092;-60
2020/12/16 01:17:04;;;;;;;1.25;1.00;;;;;;;;;;4930943;28;20098;-61
2020/12/16 01:19:32;;;;;;;0.35;0.35;;;;;;;;;;4931825;28;20359;-61
2020/12/16 01:21:58;;;;;;;0.00;0.00;;;;;;;;;;4946394;28;20050;-62
2020/12/16 01:24:26;;;;;;;0.00;0.00;;;;;;;;;;4963595;28;20023;-61
2020/12/16 01:26:56;;;;;;;0.90;0.70;;;;;;;;;;4933945;28;20039;-62
2020/12/16 01:29:24;;;;;;;1.00;0.82;;;;;;;;;;4931847;28;20045;-60
2020/12/16 01:31:52;;;;;;;0.10;0.10;;;;;;;;;;4949121;28;20121;-61
2020/12/16 01:34:19;;;;;;;0.28;0.28;;;;;;;;;;4964328;28;20051;-61
2020/12/16 01:36:50;;;;;;;0.47;0.47;;;;;;;;;;4961211;28;20039;-62
2020/12/16 01:39:21;;;;;;;0.90;0.90;;;;;;;;;;4932403;28;20046;-61
2020/12/16 01:41:49;;;;;;;2.25;0.65;;;;;;;;;;4961711;28;20037;-61
2020/12/16 01:44:19;;;;;;;4.45;1.05;;;;;;;;;;4948369;28;20200;-61
2020/12/16 01:46:55;;;;;;;0.00;0.00;;;;;;;;;;4928963;28;20032;-61
2020/12/16 01:49:22;;;;;;;0.47;0.43;;;;;;;;;;4948899;28;20493;-61
2020/12/16 01:51:49;;;;;;;0.55;0.55;;;;;;;;;;4950029;28;20125;-61
2020/12/16 01:54:17;;;;;;;0.00;0.00;;;;;;;;;;4949587;28;20109;-60
2020/12/16 01:56:45;;;;;;;0.00;0.00;;;;;;;;;;4947316;28;20533;-61
2020/12/16 01:59:15;;;;;;;0.20;0.20;;;;;;;;;;4930004;28;20138;-62
2020/12/16 02:01:45;;;;;;;0.20;0.20;;;;;;;;;;4928900;28;20452;-61
2020/12/16 02:04:16;;;;;;;0.00;0.00;;;;;;;;;;4945691;28;20206;-62
2020/12/16 02:06:48;;;;;;;0.05;0.05;;;;;;;;;;4925940;28;20034;-62
2020/12/16 02:09:18;;;;;;;0.00;0.00;;;;;;;;;;4959637;28;20167;-60
2020/12/16 02:11:44;;;;;;;0.40;0.40;;;;;;;;;;4928473;28;22042;-60
2020/12/16 02:14:09;;;;;;;0.22;0.22;;;;;;;;;;4941279;28;20035;-60
2020/12/16 02:16:38;;;;;;;0.17;0.17;;;;;;;;;;4949781;28;20049;-60
2020/12/16 02:19:06;;;;;;;0.80;0.70;;;;;;;;;;4945986;28;20034;-60
2020/12/16 02:21:36;;;;;;;0.47;0.47;;;;;;;;;;4940827;28;20052;-61
2020/12/16 02:24:04;;;;;;;1.35;1.25;;;;;;;;;;4949113;28;20259;-61
2020/12/16 02:26:37;;;;;;;0.85;0.85;;;;;;;;;;4948351;28;20085;-61
2020/12/16 02:29:06;;;;;;;0.65;0.65;;;;;;;;;;4947606;28;20035;-62
2020/12/16 02:31:34;;;;;;;0.10;0.10;;;;;;;;;;4946011;28;20026;-62
2020/12/16 02:34:05;;;;;;;3.10;0.98;;;;;;;;;;4944275;28;20046;-62
2020/12/16 02:36:33;;;;;;;0.20;0.20;;;;;;;;;;4944106;28;20121;-62
2020/12/16 02:38:59;;;;;;;0.00;0.00;;;;;;;;;;4929300;28;20239;-62
2020/12/16 02:41:27;;;;;;;0.28;0.28;;;;;;;;;;4947369;28;20516;-61
2020/12/16 02:43:52;;;;;;;0.70;0.70;;;;;;;;;;4928749;28;20041;-61
2020/12/16 02:46:18;;;;;;;0.00;0.00;;;;;;;;;;4945147;28;20177;-61
2020/12/16 02:48:46;;;;;;;0.00;0.00;;;;;;;;;;4944737;28;20227;-61
2020/12/16 02:51:14;;;;;;;0.22;0.15;;;;;;;;;;4948938;28;20066;-61
2020/12/16 02:53:42;;;;;;;0.00;0.00;;;;;;;;;;4947873;28;20031;-62
2020/12/16 02:56:07;;;;;;;3.42;0.85;;;;;;;;;;4946603;28;20038;-61
2020/12/16 02:58:33;;;;;;;0.43;0.43;;;;;;;;;;4948419;28;20042;-62
2020/12/16 03:01:01;;;;;;;0.00;0.00;;;;;;;;;;4948033;28;20733;-62
2020/12/16 03:03:29;;;;;;;0.00;0.00;;;;;;;;;;4950049;28;20453;-61
2020/12/16 03:05:54;;;;;;;0.20;0.20;;;;;;;;;;4946559;28;20041;-62
2020/12/16 03:08:19;;;;;;;0.45;0.45;;;;;;;;;;4944997;28;20038;-62
2020/12/16 03:10:47;;;;;;;0.10;0.10;;;;;;;;;;4928757;28;20328;-62
2020/12/16 03:13:15;;;;;;;0.00;0.00;;;;;;;;;;4929743;28;20725;-62
2020/12/16 03:15:43;;;;;;;0.00;0.00;;;;;;;;;;4944157;28;21020;-62
2020/12/16 03:18:10;;;;;;;0.00;0.00;;;;;;;;;;4945845;28;20093;-61
2020/12/16 03:20:40;;;;;;;0.52;0.47;;;;;;;;;;4934312;28;20690;-62
2020/12/16 03:23:06;;;;;;;0.00;0.00;;;;;;;;;;4934998;28;20047;-61
2020/12/16 03:25:33;;;;;;;0.00;0.00;;;;;;;;;;4945724;28;20413;-63
2020/12/16 03:28:06;;;;;;;0.10;0.10;;;;;;;;;;4944540;28;20186;-61
2020/12/16 03:30:34;;;;;;;0.13;0.13;;;;;;;;;;4958203;28;20026;-61
2020/12/16 03:33:02;;;;;;;0.00;0.00;;;;;;;;;;4930563;28;20504;-62
2020/12/16 03:35:30;;;;;;;0.00;0.00;;;;;;;;;;4933325;28;20352;-62
2020/12/16 03:37:57;;;;;;;1.10;0.63;;;;;;;;;;4930505;28;20580;-61
2020/12/16 03:40:25;;;;;;;0.20;0.20;;;;;;;;;;4947791;28;20048;-60
2020/12/16 03:42:53;;;;;;;0.55;0.55;;;;;;;;;;4952923;28;20039;-61
2020/12/16 03:45:23;;;;;;;0.00;0.00;;;;;;;;;;4949798;28;20308;-61
2020/12/16 03:47:51;;;;;;;1.27;1.17;;;;;;;;;;4945948;28;20067;-60
2020/12/16 03:50:16;;;;;;;0.47;0.17;;;;;;;;;;4935076;28;20454;-60
2020/12/16 03:52:46;;;;;;;0.00;0.00;;;;;;;;;;4949683;28;20026;-60
2020/12/16 03:55:12;;;;;;;0.00;0.00;;;;;;;;;;4949411;28;20163;-61
2020/12/16 03:57:40;;;;;;;0.00;0.00;;;;;;;;;;4948694;28;20478;-61
2020/12/16 04:00:10;;;;;;;0.00;0.00;;;;;;;;;;4952147;28;20077;-60
2020/12/16 04:02:38;;;;;;;0.28;0.25;;;;;;;;;;4953780;28;20091;-60
2020/12/16 04:05:09;;;;;;;0.00;0.00;;;;;;;;;;4934176;28;20039;-61
2020/12/16 04:07:37;;;;;;;1.23;1.17;;;;;;;;;;4950427;28;20039;-61
2020/12/16 04:10:07;;;;;;;0.10;0.10;;;;;;;;;;4952152;28;20499;-62
2020/12/16 04:12:37;;;;;;;0.55;0.55;;;;;;;;;;4947819;28;20039;-61
2020/12/16 04:15:08;;;;;;;0.08;0.08;;;;;;;;;;4949060;28;20046;-61
2020/12/16 04:17:36;;;;;;;0.00;0.00;;;;;;;;;;4951239;28;20639;-61
2020/12/16 04:20:05;;;;;;;0.10;0.10;;;;;;;;;;4963899;28;20031;-61
2020/12/16 04:22:33;;;;;;;0.00;0.00;;;;;;;;;;4949414;28;20058;-61
2020/12/16 04:25:01;;;;;;;4.55;1.13;;;;;;;;;;4949581;28;20037;-61
2020/12/16 04:27:27;;;;;;;0.32;0.32;;;;;;;;;;4946005;28;20059;-61
2020/12/16 04:29:52;;;;;;;0.20;0.20;;;;;;;;;;4931274;28;20046;-61
2020/12/16 04:32:20;;;;;;;0.15;0.15;;;;;;;;;;4947591;28;20482;-60
2020/12/16 04:34:46;;;;;;;0.00;0.00;;;;;;;;;;4948319;28;20524;-60
2020/12/16 04:37:14;;;;;;;9.25;1.25;;;;;;;;;;4947668;28;20465;-62
2020/12/16 04:39:44;;;;;;;0.00;0.00;;;;;;;;;;4949735;28;20042;-61
2020/12/16 04:42:09;;;;;;;0.00;0.00;;;;;;;;;;4947588;28;20038;-60
2020/12/16 04:44:39;;;;;;;0.00;0.00;;;;;;;;;;4946889;28;20121;-61
2020/12/16 04:47:10;;;;;;;0.20;0.20;;;;;;;;;;4929551;28;20398;-60
2020/12/16 04:49:40;;;;;;;0.05;0.05;;;;;;;;;;4950202;28;20042;-61
2020/12/16 04:52:06;;;;;;;0.38;0.38;;;;;;;;;;4951210;28;20693;-60
2020/12/16 04:54:33;;;;;;;0.00;0.00;;;;;;;;;;4952180;28;20026;-60
2020/12/16 04:57:00;;;;;;;0.20;0.20;;;;;;;;;;4951184;28;20603;-61
2020/12/16 04:59:27;;;;;;;0.13;0.13;;;;;;;;;;4949303;28;20031;-61
2020/12/16 05:01:58;;;;;;;0.00;0.00;;;;;;;;;;4930942;28;20486;-60
2020/12/16 05:04:26;;;;;;;0.30;0.30;;;;;;;;;;4958632;28;20069;-60
2020/12/16 05:06:54;;;;;;;0.20;0.20;;;;;;;;;;4950958;28;20084;-60
2020/12/16 05:09:20;;;;;;;0.00;0.00;;;;;;;;;;4946163;28;20206;-60
2020/12/16 05:11:48;;;;;;;0.35;0.30;;;;;;;;;;4947445;28;20030;-61
2020/12/16 05:14:24;;;;;;;0.00;0.00;;;;;;;;;;4946855;28;20070;-61
2020/12/16 05:17:03;;;;;;;0.00;0.00;;;;;;;;;;4930201;28;20127;-61
2020/12/16 05:19:31;;;;;;;0.93;0.85;;;;;;;;;;4947181;28;20208;-60
2020/12/16 05:22:13;;;;;;;0.00;0.00;;;;;;;;;;4944533;28;20030;-61
2020/12/16 05:24:39;;;;;;;0.35;0.35;;;;;;;;;;4947866;28;20034;-60
2020/12/16 05:27:13;;;;;;;0.10;0.10;;;;;;;;;;4947700;28;20026;-61
2020/12/16 05:29:43;;;;;;;0.00;0.00;;;;;;;;;;4948220;28;20074;-60
2020/12/16 05:32:14;;;;;;;0.00;0.00;;;;;;;;;;4960617;28;20045;-60
2020/12/16 05:34:42;;;;;;;0.08;0.08;;;;;;;;;;4944608;28;20052;-60
2020/12/16 05:37:27;;;;;;;0.90;0.90;;;;;;;;;;4948428;28;20042;-60
2020/12/16 05:39:58;;;;;;;0.65;0.65;;;;;;;;;;4942963;28;20371;-60
2020/12/16 05:42:25;;;;;;;0.28;0.28;;;;;;;;;;4947284;28;20038;-62
2020/12/16 05:44:53;;;;;;;0.00;0.00;;;;;;;;;;4951087;28;20050;-61
2020/12/16 05:47:19;;;;;;;0.45;0.43;;;;;;;;;;4948824;28;20039;-61
2020/12/16 05:49:44;;;;;;;0.20;0.20;;;;;;;;;;4947248;28;20378;-61
2020/12/16 05:52:12;;;;;;;0.00;0.00;;;;;;;;;;4943143;28;20039;-61
2020/12/16 05:54:41;;;;;;;0.00;0.00;;;;;;;;;;4946450;28;20097;-61
2020/12/16 05:57:12;;;;;;;0.10;0.10;;;;;;;;;;4947880;28;20097;-61
2020/12/16 05:59:40;;;;;;;0.00;0.00;;;;;;;;;;4945297;28;20038;-60
2020/12/16 06:02:06;;;;;;;0.00;0.00;;;;;;;;;;4926647;28;20035;-61
2020/12/16 06:08:07;;;;;;;0.00;0.00;;;;;;;;;;4945696;28;20099;-60
2020/12/16 06:10:38;;;;;;;0.20;0.20;;;;;;;;;;4928719;28;20042;-61
2020/12/16 06:13:04;;;;;;;0.00;0.00;;;;;;;;;;4940809;28;20639;-61
2020/12/16 06:15:48;;;;;;;0.00;0.00;;;;;;;;;;4945050;28;20057;-61
2020/12/16 06:18:19;;;;;;;0.00;0.00;;;;;;;;;;4945796;28;20188;-61
2020/12/16 06:20:48;;;;;;;0.00;0.00;;;;;;;;;;4945578;28;20166;-62
2020/12/16 06:23:25;;;;;;;0.00;0.00;;;;;;;;;;4932896;28;20050;-61
2020/12/16 06:25:51;;;;;;;0.00;0.00;;;;;;;;;;4960894;28;20022;-62
2020/12/16 06:28:19;;;;;;;0.10;0.10;;;;;;;;;;4948207;28;20037;-61
2020/12/16 06:30:55;;;;;;;0.00;0.00;;;;;;;;;;4945840;28;20047;-61
2020/12/16 06:33:26;;;;;;;0.00;0.00;;;;;;;;;;4942966;28;20145;-60
2020/12/16 06:36:01;;;;;;;0.00;0.00;;;;;;;;;;4945951;28;20043;-63
2020/12/16 06:38:28;;;;;;;0.60;0.60;;;;;;;;;;4945597;28;20034;-62
2020/12/16 06:40:58;;;;;;;0.52;0.52;;;;;;;;;;4926009;28;20358;-63
2020/12/16 06:43:32;;;;;;;0.00;0.00;;;;;;;;;;4927241;28;20034;-63
2020/12/16 06:45:58;;;;;;;0.25;0.25;;;;;;;;;;4947250;28;20453;-63
2020/12/16 06:48:41;;;;;;;0.15;0.15;;;;;;;;;;4946600;28;20027;-63
2020/12/16 06:51:13;;;;;;;0.00;0.00;;;;;;;;;;4943549;28;20039;-62
2020/12/16 06:53:42;;;;;;;2.25;1.13;;;;;;;;;;4946179;28;20125;-62
2020/12/16 06:56:17;;;;;;;0.10;0.10;;;;;;;;;;4940142;28;20326;-62
2020/12/16 06:58:42;;;;;;;0.00;0.00;;;;;;;;;;4943848;28;20069;-62
2020/12/16 07:01:16;;;;;;;0.15;0.15;;;;;;;;;;4945221;28;20034;-62
2020/12/16 07:03:44;;;;;;;0.00;0.00;;;;;;;;;;4925282;28;20049;-62
2020/12/16 07:06:30;;;;;;;0.32;0.32;;;;;;;;;;4945718;28;20109;-62
2020/12/16 07:09:14;;;;;;;0.00;0.00;;;;;;;;;;4943543;28;20286;-63
2020/12/16 07:11:41;;;;;;;0.00;0.00;;;;;;;;;;4943422;28;20027;-61
2020/12/16 07:14:12;;;;;;;0.00;0.00;;;;;;;;;;4945312;28;20481;-62
2020/12/16 07:16:41;;;;;;;0.25;0.25;;;;;;;;;;4946421;28;20183;-62
2020/12/16 07:19:09;;;;;;;0.00;0.00;;;;;;;;;;4931968;28;20320;-61
2020/12/16 07:21:40;;;;;;;0.52;0.35;;;;;;;;;;4927046;28;20404;-62
2020/12/16 07:24:14;;;;;;;0.00;0.00;;;;;;;;;;4943429;28;20334;-62
2020/12/16 07:26:51;;;;;;;0.93;0.88;;;;;;;;;;4918718;28;20314;-62
2020/12/16 07:29:19;;;;;;;0.00;0.00;;;;;;;;;;4944105;28;20053;-62
2020/12/16 07:31:55;;;;;;;0.00;0.00;;;;;;;;;;4927514;28;20023;-61
2020/12/16 07:34:20;;;;;;;0.00;0.00;;;;;;;;;;4921431;28;20101;-61
2020/12/16 07:36:52;;;;;;;0.00;0.00;;;;;;;;;;4923074;28;20423;-61
2020/12/16 07:39:22;;;;;;;0.00;0.00;;;;;;;;;;4945498;28;20038;-64
2020/12/16 07:41:48;;;;;;;0.13;0.13;;;;;;;;;;4945585;28;20066;-61
2020/12/16 07:44:16;;;;;;;0.00;0.00;;;;;;;;;;4945209;28;20145;-61
2020/12/16 07:46:46;;;;;;;0.00;0.00;;;;;;;;;;4932208;28;20059;-61
2020/12/16 07:49:12;;;;;;;0.00;0.00;;;;;;;;;;4937834;28;20646;-62
2020/12/16 07:51:40;;;;;;;0.00;0.00;;;;;;;;;;4945045;28;20034;-62
2020/12/16 07:54:06;;;;;;;0.00;0.00;;;;;;;;;;4941297;28;21612;-62
2020/12/16 07:56:31;;;;;;;0.00;0.00;;;;;;;;;;4958037;28;20035;-62
2020/12/16 07:59:07;;;;;;;0.00;0.00;;;;;;;;;;4943916;28;20565;-63
2020/12/16 08:01:32;;;;;;;0.10;0.10;;;;;;;;;;4935718;28;20482;-62
2020/12/16 08:03:58;;;;;;;0.28;0.28;;;;;;;;;;4940059;28;20031;-62
2020/12/16 08:06:26;;;;;;;0.15;0.15;;;;;;;;;;4940289;28;20421;-62
2020/12/16 08:08:52;;;;;;;0.10;0.10;;;;;;;;;;4944582;28;20196;-62
2020/12/16 08:11:21;;;;;;;0.13;0.13;;;;;;;;;;4945968;28;20129;-61
2020/12/16 08:13:48;;;;;;;0.00;0.00;;;;;;;;;;4946784;28;20337;-62
2020/12/16 08:16:15;;;;;;;0.05;0.05;;;;;;;;;;4943682;28;20034;-61
2020/12/16 08:18:41;;;;;;;0.00;0.00;;;;;;;;;;4932195;28;20536;-62
2020/12/16 08:21:20;;;;;;;0.00;0.00;;;;;;;;;;4944431;28;20089;-62
2020/12/16 08:23:50;;;;;;;0.13;0.13;;;;;;;;;;4948737;28;20042;-63
2020/12/16 08:26:20;;;;;;;0.00;0.00;;;;;;;;;;4950386;28;20022;-61
2020/12/16 08:28:45;;;;;;;0.00;0.00;;;;;;;;;;4942882;28;20046;-63
2020/12/16 08:31:16;;;;;;;0.13;0.13;;;;;;;;;;4922294;28;20378;-62
2020/12/16 08:33:45;;;;;;;0.00;0.00;;;;;;;;;;4951189;28;20035;-62
2020/12/16 08:36:18;;;;;;;0.00;0.00;;;;;;;;;;4939122;28;20614;-62
2020/12/16 08:38:48;;;;;;;0.00;0.00;;;;;;;;;;4942674;28;20034;-62
2020/12/16 08:41:24;;;;;;;0.20;0.20;;;;;;;;;;4924480;28;20133;-62
2020/12/16 08:43:49;;;;;;;0.35;0.35;;;;;;;;;;4965310;28;20695;-66
2020/12/16 08:46:17;;;;;;;0.00;0.00;;;;;;;;;;4942458;28;20034;-62
2020/12/16 08:48:46;;;;;;;0.10;0.10;;;;;;;;;;4945578;28;20078;-62
2020/12/16 08:51:16;;;;;;;0.00;0.00;;;;;;;;;;4926511;28;20660;-62
2020/12/16 08:54:02;;;;;;;0.10;0.10;;;;;;;;;;4934631;28;20026;-63
2020/12/16 08:56:27;;;;;;;0.00;0.00;;;;;;;;;;4945508;28;20047;-63
2020/12/16 08:59:05;;;;;;;1.48;1.38;;;;;;;;;;4942175;28;20121;-63
2020/12/16 09:01:31;;;;;;;0.30;0.30;;;;;;;;;;4945991;28;20446;-63
2020/12/16 09:03:57;;;;;;;0.47;0.47;;;;;;;;;;4951213;28;20281;-64
2020/12/16 09:06:22;;;;;;;0.00;0.00;;;;;;;;;;4960965;28;20124;-64
2020/12/16 09:08:48;;;;;;;0.00;0.00;;;;;;;;;;4951671;28;20037;-63
2020/12/16 09:11:19;;;;;;;0.10;0.10;;;;;;;;;;4949912;28;20043;-63
2020/12/16 09:13:51;;;;;;;0.40;0.40;;;;;;;;;;4949150;28;20562;-63
2020/12/16 09:16:23;;;;;;;0.10;0.10;;;;;;;;;;4932938;28;20092;-63
2020/12/16 09:18:49;;;;;;;0.03;0.03;;;;;;;;;;4955924;28;20042;-64
2020/12/16 09:21:17;;;;;;;0.00;0.00;;;;;;;;;;4924833;28;20122;-64
2020/12/16 09:23:43;;;;;;;0.10;0.10;;;;;;;;;;4943142;28;20050;-63
2020/12/16 09:26:13;;;;;;;0.63;0.63;;;;;;;;;;4932873;28;20086;-63
2020/12/16 09:28:45;;;;;;;0.00;0.00;;;;;;;;;;4931871;28;20798;-64
2020/12/16 09:31:14;;;;;;;0.20;0.20;;;;;;;;;;4947502;28;20042;-64
2020/12/16 09:33:42;;;;;;;0.55;0.55;;;;;;;;;;4944086;28;20050;-64
2020/12/16 09:36:10;;;;;;;4.60;1.60;;;;;;;;;;4959889;28;20034;-64
2020/12/16 09:38:38;;;;;;;0.05;0.05;;;;;;;;;;4964597;28;20343;-64
2020/12/16 09:41:08;;;;;;;0.10;0.10;;;;;;;;;;4930724;28;20226;-62
2020/12/16 09:43:40;;;;;;;0.05;0.05;;;;;;;;;;4950004;28;20759;-64
2020/12/16 09:46:12;;;;;;;0.68;0.68;;;;;;;;;;4945711;28;20030;-61
2020/12/16 09:48:38;;;;;;;0.50;0.50;;;;;;;;;;4933630;28;20267;-64
2020/12/16 09:51:10;;;;;;;1.15;0.47;;;;;;;;;;4937914;28;20057;-64
2020/12/16 09:53:39;;;;;;;0.05;0.05;;;;;;;;;;4946147;28;20030;-64
2020/12/16 09:56:07;;;;;;;0.20;0.20;;;;;;;;;;4936889;28;20126;-65
2020/12/16 09:58:37;;;;;;;0.45;0.45;;;;;;;;;;4941732;28;20135;-65
2020/12/16 10:01:05;;;;;;;0.22;0.22;;;;;;;;;;4947241;28;20703;-68
2020/12/16 10:03:31;;;;;;;0.43;0.30;;;;;;;;;;4947281;28;20053;-64
2020/12/16 10:05:58;;;;;;;0.10;0.10;;;;;;;;;;4946963;28;20030;-66
2020/12/16 10:08:24;;;;;;;0.20;0.20;;;;;;;;;;4948286;28;20027;-66
2020/12/16 10:10:49;;;;;;;0.00;0.00;;;;;;;;;;4946703;28;22223;-65
2020/12/16 10:13:17;;;;;;;0.00;0.00;;;;;;;;;;4926134;28;20088;-66
2020/12/16 10:15:43;;;;;;;0.47;0.43;;;;;;;;;;4949631;28;20040;-66
2020/12/16 10:18:11;;;;;;;1.85;0.47;;;;;;;;;;4948014;28;20132;-66
2020/12/16 10:20:36;;;;;;;0.47;0.30;;;;;;;;;;4948297;28;20026;-65
2020/12/16 10:23:02;;;;;;;0.20;0.20;;;;;;;;;;4945346;28;20176;-65
2020/12/16 10:25:28;;;;;;;0.10;0.10;;;;;;;;;;4947243;28;20458;-66
2020/12/16 10:27:53;;;;;;;0.43;0.43;;;;;;;;;;4940983;28;20544;-65
2020/12/16 10:30:24;;;;;;;0.10;0.10;;;;;;;;;;4949113;28;20120;-65
2020/12/16 10:32:50;;;;;;;0.38;0.38;;;;;;;;;;4924581;28;20514;-66
2020/12/16 10:35:16;;;;;;;3.75;1.02;;;;;;;;;;4947268;28;20053;-66
2020/12/16 10:37:45;;;;;;;0.15;0.15;;;;;;;;;;4947468;28;20042;-66
2020/12/16 10:40:13;;;;;;;1.67;1.58;;;;;;;;;;4929166;28;20108;-66
2020/12/16 10:42:39;;;;;;;0.03;0.03;;;;;;;;;;4950010;28;20509;-67
2020/12/16 10:45:07;;;;;;;0.00;0.00;;;;;;;;;;4932992;28;20074;-66
2020/12/16 10:47:35;;;;;;;0.43;0.40;;;;;;;;;;4943047;28;20056;-65
2020/12/16 10:50:00;;;;;;;0.40;0.40;;;;;;;;;;4945094;28;20046;-67
2020/12/16 10:52:31;;;;;;;0.50;0.50;;;;;;;;;;4931261;28;20065;-66
2020/12/16 10:54:56;;;;;;;0.68;0.68;;;;;;;;;;4929712;28;20203;-67
2020/12/16 10:57:25;;;;;;;0.38;0.38;;;;;;;;;;4953409;28;20038;-66
2020/12/16 10:59:50;;;;;;;4.35;1.63;;;;;;;;;;4949133;28;20305;-67
2020/12/16 11:02:21;;;;;;;0.45;0.45;;;;;;;;;;4931001;28;20541;-67
2020/12/16 11:04:47;;;;;;;1.40;1.30;;;;;;;;;;4936938;28;20038;-67
2020/12/16 11:07:16;;;;;;;1.52;1.45;;;;;;;;;;4934668;28;20271;-67
2020/12/16 11:09:41;;;;;;;1.77;1.67;;;;;;;;;;4936217;28;20394;-67
2020/12/16 11:12:06;;;;;;;1.35;1.25;;;;;;;;;;4950863;28;20133;-67
2020/12/16 11:14:32;;;;;;;0.55;0.55;;;;;;;;;;4899525;28;20050;-67
2020/12/16 11:17:03;;;;;;;0.60;0.47;;;;;;;;;;4943851;28;20042;-67
2020/12/16 11:19:28;;;;;;;1.85;1.33;;;;;;;;;;4933569;28;20543;-67
2020/12/16 11:21:56;;;;;;;0.20;0.20;;;;;;;;;;4905921;28;20034;-67
2020/12/16 11:24:23;;;;;;;2.55;1.95;;;;;;;;;;4948757;28;20074;-66
2020/12/16 11:26:52;;;;;;;0.63;0.63;;;;;;;;;;4944601;28;20154;-66
2020/12/16 11:29:18;;;;;;;1.77;0.82;;;;;;;;;;4943288;28;20719;-67
2020/12/16 11:31:50;;;;;;;0.32;0.32;;;;;;;;;;4933527;28;20561;-67
2020/12/16 11:34:22;;;;;;;0.68;0.50;;;;;;;;;;4934073;28;20121;-67
2020/12/16 11:36:48;;;;;;;0.38;0.38;;;;;;;;;;4931219;28;20056;-67
2020/12/16 11:39:17;;;;;;;0.22;0.17;;;;;;;;;;4950692;28;20034;-68
2020/12/16 11:41:44;;;;;;;0.40;0.40;;;;;;;;;;4948625;28;20035;-68
2020/12/16 11:44:10;;;;;;;1.95;1.33;;;;;;;;;;4948266;28;20098;-68
2020/12/16 11:46:38;;;;;;;0.35;0.35;;;;;;;;;;4951261;28;20549;-67
2020/12/16 11:49:08;;;;;;;0.60;0.60;;;;;;;;;;4962951;28;20134;-68
2020/12/16 11:51:39;;;;;;;1.05;0.95;;;;;;;;;;4950106;28;20485;-68
2020/12/16 11:54:05;;;;;;;2.05;1.70;;;;;;;;;;4942197;28;20035;-66
2020/12/16 11:56:33;;;;;;;1.15;1.15;;;;;;;;;;4925696;28;21402;-68
2020/12/16 11:59:01;;;;;;;0.55;0.55;;;;;;;;;;4946847;28;20038;-67
2020/12/16 12:01:27;;;;;;;2.25;1.42;;;;;;;;;;4943373;28;21515;-68
2020/12/16 12:03:52;;;;;;;1.48;1.10;;;;;;;;;;4948657;28;20066;-67
2020/12/16 12:06:18;;;;;;;1.35;1.27;;;;;;;;;;4949549;28;20061;-67
2020/12/16 12:08:44;;;;;;;0.90;0.90;;;;;;;;;;4948820;28;20050;-68
2020/12/16 12:11:13;;;;;;;0.30;0.30;;;;;;;;;;4947972;28;20045;-67
2020/12/16 12:13:39;;;;;;;1.15;1.08;;;;;;;;;;4949017;28;20023;-66
2020/12/16 12:16:09;;;;;;;1.00;1.00;;;;;;;;;;4951071;28;20038;-67
2020/12/16 12:18:38;;;;;;;1.73;1.40;;;;;;;;;;4933130;28;20061;-67
2020/12/16 12:21:07;;;;;;;1.42;1.38;;;;;;;;;;4948791;28;20045;-67
2020/12/16 12:23:32;;;;;;;1.00;0.63;;;;;;;;;;4948537;28;20946;-66
2020/12/16 12:25:57;;;;;;;3.00;1.48;;;;;;;;;;4949044;28;20030;-66
2020/12/16 12:28:25;;;;;;;0.70;0.70;;;;;;;;;;4962708;28;20038;-67
2020/12/16 12:30:51;;;;;;;0.75;0.75;;;;;;;;;;4948410;28;20030;-68
2020/12/16 12:33:16;;;;;;;1.05;1.05;;;;;;;;;;4915141;28;20646;-68
2020/12/16 12:35:42;;;;;;;1.17;0.88;;;;;;;;;;4948334;28;20058;-67
2020/12/16 12:38:09;;;;;;;0.93;0.90;;;;;;;;;;4948136;28;20485;-68
2020/12/16 12:40:37;;;;;;;4.57;1.08;;;;;;;;;;4948643;28;20038;-67
2020/12/16 12:43:05;;;;;;;0.98;0.70;;;;;;;;;;4963451;28;20046;-67
2020/12/16 12:46:05;;;;;;;0.03;0.03;;;;;;;;;;4949681;28;20115;-66
2020/12/16 12:48:30;;;;;;;0.95;0.93;;;;;;;;;;4932124;28;20726;-67
2020/12/16 12:50:56;;;;;;;3.65;2.03;;;;;;;;;;4947230;28;20084;-68
2020/12/16 12:53:21;;;;;;;0.68;0.60;;;;;;;;;;4949276;28;20039;-67
2020/12/16 12:55:49;;;;;;;1.80;1.63;;;;;;;;;;4932779;28;20042;-67
2020/12/16 12:58:14;;;;;;;2.25;2.05;;;;;;;;;;4950685;28;20047;-66
2020/12/16 13:00:39;;;;;;;0.68;0.68;;;;;;;;;;4945184;28;20221;-66
2020/12/16 13:03:10;;;;;;;1.75;0.95;;;;;;;;;;4934219;28;20071;-67
2020/12/16 13:05:37;;;;;;;3.83;1.23;;;;;;;;;;4931169;28;20485;-66
2020/12/16 13:08:04;;;;;;;0.35;0.35;;;;;;;;;;4947730;28;20131;-67
2020/12/16 13:10:29;;;;;;;1.08;1.08;;;;;;;;;;4949212;28;20031;-67
2020/12/16 13:13:02;;;;;;;0.32;0.32;;;;;;;;;;4928146;28;20045;-66
2020/12/16 13:15:27;;;;;;;2.33;0.85;;;;;;;;;;4949397;28;20154;-67
2020/12/16 13:17:55;;;;;;;0.77;0.77;;;;;;;;;;4964642;28;20049;-66
2020/12/16 13:20:21;;;;;;;0.90;0.73;;;;;;;;;;4947513;28;20043;-67
2020/12/16 13:22:51;;;;;;;0.20;0.20;;;;;;;;;;4947467;28;20053;-67
2020/12/16 13:25:17;;;;;;;2.50;0.77;;;;;;;;;;4930722;28;20038;-68
2020/12/16 13:27:42;;;;;;;2.30;2.10;;;;;;;;;;4928813;28;20814;-66
2020/12/16 13:30:10;;;;;;;0.63;0.63;;;;;;;;;;4933075;28;21003;-66
2020/12/16 13:32:38;;;;;;;5.88;2.10;;;;;;;;;;4948241;28;20035;-66
2020/12/16 13:35:04;;;;;;;1.77;1.08;;;;;;;;;;4946068;28;20049;-66
2020/12/16 13:37:32;;;;;;;0.63;0.57;;;;;;;;;;4946209;28;20543;-67
2020/12/16 13:39:58;;;;;;;1.10;1.05;;;;;;;;;;4936091;28;20395;-66
2020/12/16 13:42:26;;;;;;;1.67;1.58;;;;;;;;;;4948209;28;20082;-67
2020/12/16 13:44:54;;;;;;;0.43;0.43;;;;;;;;;;4948381;28;20569;-68
2020/12/16 13:47:22;;;;;;;0.77;0.77;;;;;;;;;;4940818;28;20141;-67
2020/12/16 13:49:51;;;;;;;0.38;0.38;;;;;;;;;;4945972;28;20038;-67
2020/12/16 13:52:16;;;;;;;2.17;1.98;;;;;;;;;;4935809;28;20041;-67
2020/12/16 13:54:46;;;;;;;1.73;1.60;;;;;;;;;;4933690;28;20451;-67
2020/12/16 13:57:12;;;;;;;0.20;0.20;;;;;;;;;;4947830;28;20057;-67
2020/12/16 13:59:40;;;;;;;0.20;0.20;;;;;;;;;;4947008;28;20453;-67
2020/12/16 14:02:11;;;;;;;1.33;1.23;;;;;;;;;;4950315;28;20760;-66
2020/12/16 14:04:39;;;;;;;0.30;0.30;;;;;;;;;;4949106;28;20133;-68
2020/12/16 14:07:08;;;;;;;3.47;1.83;;;;;;;;;;4963546;28;20031;-68
2020/12/16 14:09:33;;;;;;;2.75;1.67;;;;;;;;;;4948631;28;20097;-68
2020/12/16 14:12:02;;;;;;;0.85;0.85;;;;;;;;;;4948313;28;20159;-67
2020/12/16 14:14:28;;;;;;;1.00;0.95;;;;;;;;;;4947248;28;20047;-66
2020/12/16 14:16:59;;;;;;;5.38;1.48;;;;;;;;;;4915890;28;20030;-66
2020/12/16 14:19:27;;;;;;;1.45;1.45;;;;;;;;;;4942802;28;20455;-67
2020/12/16 14:21:56;;;;;;;1.17;1.08;;;;;;;;;;4945148;28;20027;-66
2020/12/16 14:24:22;;;;;;;1.85;1.75;;;;;;;;;;4933599;28;20062;-66
2020/12/16 14:26:49;;;;;;;2.58;1.15;;;;;;;;;;4951157;28;20035;-67
2020/12/16 14:29:15;;;;;;;1.75;0.68;;;;;;;;;;4931736;28;20442;-67
2020/12/16 14:31:43;;;;;;;1.58;1.48;;;;;;;;;;4930960;28;20117;-68
2020/12/16 14:34:09;;;;;;;1.75;0.93;;;;;;;;;;4948471;28;20121;-66
2020/12/16 14:36:37;;;;;;;0.52;0.52;;;;;;;;;;4949210;28;20043;-67
2020/12/16 14:39:05;;;;;;;0.65;0.65;;;;;;;;;;4948418;28;20105;-66
2020/12/16 14:41:33;;;;;;;0.50;0.50;;;;;;;;;;4960506;28;20169;-67
2020/12/16 14:44:00;;;;;;;0.13;0.13;;;;;;;;;;4948956;28;20475;-67
2020/12/16 14:46:28;;;;;;;4.65;1.60;;;;;;;;;;4930426;28;20046;-67
2020/12/16 14:48:53;;;;;;;0.10;0.10;;;;;;;;;;4947401;28;20026;-66
2020/12/16 14:51:23;;;;;;;1.15;1.15;;;;;;;;;;4921754;28;20031;-66
2020/12/16 14:53:51;;;;;;;1.23;0.98;;;;;;;;;;4942667;28;20033;-67